ADDS METAR Data INFO
IDs: Format: Raw Decoded Include TAF

Data at: 0709 UTC 16 Jan 2018

KGGG 160700Z AUTO 34014G22KT 9SM -SN SCT010 SCT014 OVC044 M03/M03 A3054 RMK AO2 P0000 T10281028
KGGG 160653Z AUTO 35013G25KT 7SM -SN SCT010 BKN014 OVC044 M03/M03 A3053 RMK AO2 SLP341 P0002 T10281033
KGGG 160619Z AUTO 35013G25KT 4SM -SN BR SCT008 BKN014 OVC040 M02/M02 A3052 RMK AO2 P0002 T10171017
KGGG 160605Z AUTO 33013KT 5SM -SN BR OVC010 M01/M01 A3052 RMK AO2 CIG 006V014 P0001 T10111011
KGGG 160553Z AUTO 34013KT 9SM -SN BKN008 OVC013 M01/M01 A3051 RMK AO2 PK WND 33026/0514 RAE15UPB31E37FZRAB37E50SNB15E31B50 SLP335 P0004 60018 I1002 I6002 T10061006 10133 21006 401721022 53044
KGGG 160543Z AUTO 35014KT 10SM -FZRA OVC012 M01/M01 A3051 RMK AO2 PK WND 33026/0514 RAE15UPB31E37FZRAB37SNB15E31 P0003 I1001 T10061006
KGGG 160504Z AUTO 35012KT 9SM RA OVC008 01/01 A3048 RMK AO2 CIG 006V012 P0001 T00060006
KGGG 160453Z AUTO 35013G21KT 10SM -RA OVC010 02/01 A3047 RMK AO2 RAE12B40 CIG 006V014 SLP321 P0001 I1000 T00170011

KGGG 160520Z 1606/1706 35013G21KT P6SM -RA OVC010
  FM160700 35017G24KT 3SM -SN BKN010 OVC025
  FM161500 36015G21KT P6SM OVC050
  FM162200 35012KT P6SM SCT100
  FM170000 34005KT P6SM SKC


KTYR 160653Z AUTO 36018G26KT 1 3/4SM -SN BR FEW010 BKN015 OVC026 M05/M07 A3057 RMK AO2 PK WND 01029/0615 SLP354 P0003 T10501067 $
KTYR 160649Z AUTO 36020G26KT 2SM -SN BR FEW012 BKN017 OVC026 M04/M07 A3057 RMK AO2 PK WND 01029/0615 P0002 $
KTYR 160553Z AUTO 34012G24KT 6SM -SN BR SCT008 OVC013 M03/M04 A3054 RMK AO2 FZRAE40SNB40 SLP341 P0003 60024 I1003 I6016 T10281044 10056 21028 401721028 51042 $
KTYR 160540Z AUTO 35014G23KT 8SM -SN OVC010 M02/M04 A3053 RMK AO2 FZRAE40SNB40 CIG 006V015 P0003 I1003 T10221039 $
KTYR 160538Z AUTO 35014G23KT 8SM -FZRA OVC008 M02/M04 A3053 RMK AO2 CIG 006V013 P0003 I1003 T10221039 $
KTYR 160517Z AUTO 36017G23KT 6SM FZRA BR BKN008 OVC012 M01/M02 A3052 RMK AO2 CIG 006V010 P0002 I1002 T10111022 $
KTYR 160458Z AUTO 01018G24KT 6SM -FZRA BR OVC010 M01/M02 A3051 RMK AO2 CIG 005V014 P0000 I1001 T10111022 $
KTYR 160453Z AUTO 36015G22KT 7SM FZRA BKN008 OVC012 M01/M02 A3051 RMK AO2 PK WND 35027/0412 RAE0357FZRAB0357 CIG 005V010 SLP331 P0010 I1013 T10111022 $
KTYR 160432Z AUTO 34015G24KT 4SM FZRA BR BKN008 OVC014 M01/M02 A3050 RMK AO2 PK WND 35027/0412 RAE0357FZRAB0357 CIG 005V011 P0008 I1010 T10061017 $
KTYR 160423Z AUTO 35011G23KT 4SM FZRA BR SCT008 BKN014 OVC032 00/M02 A3049 RMK AO2 PK WND 35027/0412 RAE0357FZRAB0357 P0006 I1008 T00001017 $

KTYR 160520Z 1606/1706 01018G24KT 6SM -FZRA BR OVC010
  FM160700 36017G23KT 3SM -SN OVC020
  FM160900 35017G24KT 6SM -SN BKN035 OVC050
  FM161400 36015G21KT P6SM OVC050
  FM170000 35008KT P6SM SKC